Brooks, Wisconsin
Current Conditions -  °F | °C
As of 6:55 AM on Friday 31 Oct 2014 (Local Time) from KDLL Reporting Station
Overcast Overcast  
Wind Chill: 22°   Ceiling: 3100
Heat Index: 32°   Visibility: 10mi
Dew Point: 23°   Wind: 16mph
Humidity: 68%   Direction: 350°N
Pressure: 30.26"   Gusts: 25mph
Location:  43.7882°N, 89.5815°W
Report Text: KDLL 311155Z AUTO 35014G22KT 10SM OVC031 00/M05 A3026 RMK AO2 T00021051 10039 21008
Loading
Personal Weather Stations






























Interactive Weather Map
Tropical Storm Tracking
New forecast layout! Learn more

10-Day Weather Forecast

Advertisements
Track Severe Weather on mobile